createdAt,value
2023-02-18T00:01:30.616Z,2.10
2023-02-18T00:03:59.875Z,2.35
2023-02-18T00:06:30.488Z,1.88
2023-02-18T00:09:01.967Z,2.35
2023-02-18T00:11:32.071Z,2.25
2023-02-18T00:14:01.905Z,2.00
2023-02-18T00:16:31.453Z,1.90
2023-02-18T00:19:04.921Z,1.42
2023-02-18T00:21:36.778Z,1.50
2023-02-18T00:24:06.278Z,2.22
2023-02-18T00:26:35.370Z,1.55
2023-02-18T00:29:04.037Z,1.42
2023-02-18T00:31:35.652Z,2.08
2023-02-18T00:34:05.143Z,1.90
2023-02-18T00:36:33.548Z,1.55
2023-02-18T00:39:04.019Z,1.70
2023-02-18T00:41:33.464Z,1.65
2023-02-18T00:44:01.544Z,1.63
2023-02-18T00:46:30.760Z,1.77
2023-02-18T00:48:58.260Z,1.83
2023-02-18T00:51:26.096Z,1.90
2023-02-18T00:53:53.751Z,1.75
2023-02-18T00:56:21.931Z,1.45
2023-02-18T00:58:50.312Z,1.58
2023-02-18T01:01:18.522Z,1.45
2023-02-18T01:03:46.536Z,1.80
2023-02-18T01:06:15.009Z,1.63
2023-02-18T01:08:43.122Z,1.50
2023-02-18T01:11:11.926Z,1.90
2023-02-18T01:13:40.064Z,1.27
2023-02-18T01:16:08.765Z,1.38
2023-02-18T01:18:37.258Z,1.52
2023-02-18T01:21:08.923Z,1.05
2023-02-18T01:23:39.009Z,1.77
2023-02-18T01:26:08.539Z,1.80
2023-02-18T01:28:39.369Z,1.40
2023-02-18T01:31:11.268Z,2.15
2023-02-18T01:33:39.251Z,1.10
2023-02-18T01:36:07.789Z,1.10
2023-02-18T01:38:35.934Z,0.98
2023-02-18T01:41:03.897Z,1.15
2023-02-18T01:43:33.198Z,1.42
2023-02-18T01:46:07.857Z,1.25
2023-02-18T01:48:53.521Z,1.20
2023-02-18T01:51:46.928Z,1.00
2023-02-18T01:54:27.069Z,1.25
2023-02-18T01:57:00.311Z,1.10
2023-02-18T01:59:50.091Z,0.80
2023-02-18T02:02:23.145Z,1.27
2023-02-18T02:04:51.250Z,0.95
2023-02-18T02:07:21.170Z,0.95
2023-02-18T02:09:50.949Z,0.88
2023-02-18T02:12:42.772Z,0.80
2023-02-18T02:15:28.390Z,0.70
2023-02-18T02:18:23.018Z,0.95
2023-02-18T02:21:09.384Z,1.00
2023-02-18T02:23:46.115Z,0.95
2023-02-18T02:26:32.046Z,1.10
2023-02-18T02:29:34.845Z,0.95
2023-02-18T02:32:26.489Z,0.80
2023-02-18T02:35:09.647Z,0.77
2023-02-18T02:38:02.085Z,0.70
2023-02-18T02:40:57.398Z,0.88
2023-02-18T02:43:42.056Z,0.80
2023-02-18T02:46:36.951Z,0.75
2023-02-18T02:49:19.923Z,0.60
2023-02-18T02:52:05.571Z,0.70
2023-02-18T02:54:33.305Z,0.68
2023-02-18T02:57:19.150Z,0.70
2023-02-18T03:00:05.826Z,0.55
2023-02-18T03:02:51.983Z,0.52
2023-02-18T03:05:31.494Z,0.73
2023-02-18T03:08:13.585Z,0.63
2023-02-18T03:11:04.157Z,0.70
2023-02-18T03:13:44.032Z,0.60
2023-02-18T03:16:51.462Z,0.60
2023-02-18T03:19:41.592Z,0.57
2023-02-18T03:22:11.856Z,0.70
2023-02-18T03:24:47.104Z,0.60
2023-02-18T03:27:18.288Z,0.80
2023-02-18T03:29:52.772Z,0.77
2023-02-18T03:32:22.626Z,0.63
2023-02-18T03:34:55.712Z,0.70
2023-02-18T03:37:24.221Z,0.32
2023-02-18T03:39:56.580Z,0.70
2023-02-18T03:42:28.594Z,0.70
2023-02-18T03:44:56.711Z,0.90
2023-02-18T03:47:25.316Z,0.40
2023-02-18T03:49:52.844Z,0.40
2023-02-18T03:52:20.450Z,0.68
2023-02-18T03:54:47.995Z,0.70
2023-02-18T03:57:15.488Z,0.50
2023-02-18T03:59:43.060Z,0.73
2023-02-18T04:02:10.484Z,0.50
2023-02-18T04:04:38.035Z,0.47
2023-02-18T04:07:05.722Z,0.40
2023-02-18T04:09:33.235Z,0.40
2023-02-18T04:12:00.731Z,0.50
2023-02-18T04:14:28.281Z,0.45
2023-02-18T04:16:55.840Z,0.32
2023-02-18T04:19:23.396Z,0.40
2023-02-18T04:21:50.840Z,0.40
2023-02-18T04:24:18.409Z,0.70
2023-02-18T04:26:45.945Z,0.60
2023-02-18T04:29:13.404Z,0.80
2023-02-18T04:31:40.915Z,0.55
2023-02-18T04:34:09.630Z,0.80
2023-02-18T04:36:37.081Z,0.50
2023-02-18T04:39:04.699Z,0.70
2023-02-18T04:41:32.164Z,0.50
2023-02-18T04:44:00.651Z,0.68
2023-02-18T04:46:28.205Z,1.17
2023-02-18T04:48:55.749Z,0.60
2023-02-18T04:51:23.308Z,0.75
2023-02-18T04:53:50.857Z,0.60
2023-02-18T04:56:18.364Z,0.45
2023-02-18T04:58:45.955Z,0.70
2023-02-18T05:01:13.516Z,0.65
2023-02-18T05:03:41.044Z,0.57
2023-02-18T05:06:08.791Z,0.55
2023-02-18T05:08:36.413Z,0.70
2023-02-18T05:11:08.326Z,0.60
2023-02-18T05:13:36.236Z,0.80
2023-02-18T05:16:03.889Z,0.50
2023-02-18T05:18:31.429Z,0.55
2023-02-18T05:20:59.075Z,0.95
2023-02-18T05:23:26.682Z,0.60
2023-02-18T05:25:55.182Z,0.60
2023-02-18T05:28:23.141Z,0.55
2023-02-18T05:30:50.635Z,0.60
2023-02-18T05:33:18.177Z,0.45
2023-02-18T05:35:46.641Z,0.55
2023-02-18T05:38:14.071Z,0.68
2023-02-18T05:40:41.570Z,0.50
2023-02-18T05:43:09.250Z,0.57
2023-02-18T05:45:37.039Z,0.70
2023-02-18T05:48:07.164Z,0.82
2023-02-18T05:50:34.786Z,0.70
2023-02-18T05:53:02.286Z,0.40
2023-02-18T05:55:29.861Z,0.77
2023-02-18T05:57:57.303Z,0.52
2023-02-18T06:00:25.559Z,0.57
2023-02-18T06:02:53.072Z,0.43
2023-02-18T06:05:20.616Z,0.80
2023-02-18T06:07:48.103Z,0.60
2023-02-18T06:10:15.632Z,0.60
2023-02-18T06:12:43.091Z,0.70
2023-02-18T06:15:10.897Z,0.50
2023-02-18T06:17:38.376Z,0.70
2023-02-18T06:20:06.580Z,0.70
2023-02-18T06:22:34.024Z,0.68
2023-02-18T06:25:01.510Z,0.63
2023-02-18T06:27:29.031Z,0.68
2023-02-18T06:29:56.495Z,0.30
2023-02-18T06:32:24.081Z,0.60
2023-02-18T06:34:51.670Z,0.55
2023-02-18T06:37:20.613Z,0.60
2023-02-18T06:39:48.164Z,0.40
2023-02-18T06:42:15.732Z,0.40
2023-02-18T06:44:43.283Z,0.52
2023-02-18T06:47:10.751Z,0.43
2023-02-18T06:49:39.112Z,0.43
2023-02-18T06:52:06.750Z,0.60
2023-02-18T06:54:34.641Z,0.50
2023-02-18T06:57:02.264Z,0.40
2023-02-18T06:59:29.757Z,0.50
2023-02-18T07:01:57.256Z,0.40
2023-02-18T07:04:24.736Z,0.68
2023-02-18T07:06:52.196Z,0.57
2023-02-18T07:09:19.679Z,0.70
2023-02-18T07:11:47.135Z,0.70
2023-02-18T07:14:14.660Z,0.82
2023-02-18T07:16:42.285Z,0.73
2023-02-18T07:19:09.852Z,0.50
2023-02-18T07:21:37.360Z,0.43
2023-02-18T07:24:05.259Z,0.65
2023-02-18T07:26:32.781Z,0.60
2023-02-18T07:29:00.370Z,0.90
2023-02-18T07:31:27.996Z,0.65
2023-02-18T07:33:55.519Z,0.70
2023-02-18T07:36:23.034Z,0.63
2023-02-18T07:38:50.561Z,0.80
2023-02-18T07:41:21.176Z,0.65
2023-02-18T07:43:49.023Z,0.80
2023-02-18T07:46:16.939Z,1.10
2023-02-18T07:48:44.498Z,0.80
2023-02-18T07:51:13.374Z,0.80
2023-02-18T07:53:40.884Z,0.90
2023-02-18T07:56:08.737Z,0.80
2023-02-18T07:58:38.758Z,0.60
2023-02-18T08:01:08.020Z,0.70
2023-02-18T08:03:35.918Z,1.10
2023-02-18T08:06:04.778Z,0.65
2023-02-18T08:08:34.608Z,0.82
2023-02-18T08:11:13.386Z,0.70
2023-02-18T08:13:47.187Z,0.68
2023-02-18T08:16:15.861Z,0.70
2023-02-18T08:18:43.539Z,0.60
2023-02-18T08:21:11.073Z,0.65
2023-02-18T08:23:38.587Z,0.90
2023-02-18T08:26:06.860Z,0.85
2023-02-18T08:28:44.130Z,0.70
2023-02-18T08:31:30.658Z,1.13
2023-02-18T08:34:00.506Z,0.80
2023-02-18T08:36:28.711Z,0.60
2023-02-18T08:38:57.044Z,1.10
2023-02-18T08:41:24.652Z,0.95
2023-02-18T08:43:54.531Z,0.80
2023-02-18T08:46:25.247Z,0.80
2023-02-18T08:49:01.166Z,1.10
2023-02-18T08:51:28.648Z,1.08
2023-02-18T08:53:58.705Z,0.85
2023-02-18T08:56:26.444Z,0.80
2023-02-18T08:58:53.960Z,1.00
2023-02-18T09:01:21.529Z,0.90
2023-02-18T09:03:49.271Z,0.70
2023-02-18T09:06:16.870Z,0.90
2023-02-18T09:08:44.366Z,1.40
2023-02-18T09:11:12.273Z,1.00
2023-02-18T09:13:40.391Z,1.10
2023-02-18T09:16:12.910Z,0.95
2023-02-18T09:18:40.698Z,1.25
2023-02-18T09:21:09.883Z,1.15
2023-02-18T09:23:37.749Z,1.30
2023-02-18T09:26:07.276Z,1.55
2023-02-18T09:28:35.687Z,1.40
2023-02-18T09:31:12.271Z,2.38
2023-02-18T09:33:44.205Z,2.95
2023-02-18T09:36:13.515Z,2.15
2023-02-18T09:38:40.992Z,3.47
2023-02-18T09:41:32.387Z,2.10
2023-02-18T09:44:24.199Z,1.70
2023-02-18T09:46:59.479Z,1.90
2023-02-18T09:49:30.273Z,1.80
2023-02-18T09:52:03.188Z,2.47
2023-02-18T09:54:30.704Z,1.85
2023-02-18T09:56:59.726Z,1.80
2023-02-18T09:59:28.034Z,1.88
2023-02-18T10:01:57.167Z,1.98
2023-02-18T10:04:41.702Z,1.70
2023-02-18T10:07:35.908Z,1.40
2023-02-18T10:10:35.148Z,1.20
2023-02-18T10:13:03.419Z,1.35
2023-02-18T10:15:32.542Z,1.17
2023-02-18T10:18:02.011Z,1.10
2023-02-18T10:20:31.005Z,1.15
2023-02-18T10:23:01.854Z,1.17
2023-02-18T10:25:29.771Z,0.95
2023-02-18T10:28:00.696Z,1.50
2023-02-18T10:30:33.787Z,1.35
2023-02-18T10:33:27.045Z,1.13
2023-02-18T10:36:02.779Z,1.35
2023-02-18T10:39:20.675Z,1.10
2023-02-18T10:42:01.174Z,1.13
2023-02-18T10:44:53.681Z,0.90
2023-02-18T10:47:28.427Z,1.08
2023-02-18T10:50:18.779Z,1.00
2023-02-18T10:52:49.485Z,0.90
2023-02-18T10:55:18.962Z,1.10
2023-02-18T10:57:52.728Z,1.10
2023-02-18T11:00:27.064Z,1.10
2023-02-18T11:03:13.331Z,1.40
2023-02-18T11:08:28.814Z,1.33
2023-02-18T11:10:57.283Z,1.17
2023-02-18T11:13:32.888Z,1.45
2023-02-18T11:16:04.276Z,1.67
2023-02-18T11:18:48.101Z,1.40
2023-02-18T11:21:24.463Z,1.15
2023-02-18T11:23:54.012Z,1.00
2023-02-18T11:26:33.989Z,1.27
2023-02-18T11:29:20.638Z,0.90
2023-02-18T11:31:51.401Z,0.93
2023-02-18T11:34:22.557Z,1.52
2023-02-18T11:36:51.295Z,1.63
2023-02-18T11:39:27.828Z,1.10
2023-02-18T11:41:57.524Z,0.93
2023-02-18T11:44:36.638Z,0.80
2023-02-18T11:47:13.292Z,1.02
2023-02-18T11:49:58.649Z,0.80
2023-02-18T11:52:47.750Z,0.80
2023-02-18T11:55:22.671Z,1.00
2023-02-18T11:58:02.616Z,0.82
2023-02-18T12:00:49.370Z,0.90
2023-02-18T12:03:35.323Z,0.93
2023-02-18T12:06:11.651Z,0.90
2023-02-18T12:09:17.376Z,0.90
2023-02-18T12:11:51.105Z,0.70
2023-02-18T12:14:21.048Z,1.00
2023-02-18T12:17:07.268Z,1.10
2023-02-18T12:19:47.260Z,0.90
2023-02-18T12:22:42.915Z,0.73
2023-02-18T12:25:32.335Z,0.90
2023-02-18T12:28:30.538Z,0.90
2023-02-18T12:31:06.639Z,0.90
2023-02-18T12:33:37.350Z,0.88
2023-02-18T12:36:13.924Z,1.00
2023-02-18T12:38:55.941Z,0.75
2023-02-18T12:41:45.262Z,0.68
2023-02-18T12:44:31.686Z,0.80
2023-02-18T12:50:01.314Z,0.90
2023-02-18T12:53:06.364Z,1.08
2023-02-18T12:55:33.921Z,0.60
2023-02-18T12:58:09.846Z,0.80
2023-02-18T13:03:05.153Z,0.77
2023-02-18T13:05:53.948Z,1.00
2023-02-18T13:08:47.750Z,1.00
2023-02-18T13:11:18.111Z,1.00
2023-02-18T13:14:00.802Z,1.00
2023-02-18T13:16:29.451Z,0.70
2023-02-18T13:19:20.736Z,0.70
2023-02-18T13:21:54.449Z,0.80
2023-02-18T13:24:28.046Z,0.82
2023-02-18T13:27:06.413Z,0.75
2023-02-18T13:30:06.830Z,0.70
2023-02-18T13:32:40.780Z,1.00
2023-02-18T13:35:17.179Z,0.88
2023-02-18T13:38:19.824Z,1.00
2023-02-18T13:40:47.405Z,1.00
2023-02-18T13:43:30.058Z,1.13
2023-02-18T13:46:07.928Z,0.80
2023-02-18T13:48:47.409Z,0.70
2023-02-18T13:51:35.277Z,0.80
2023-02-18T13:54:14.172Z,0.70
2023-02-18T13:56:45.586Z,0.90
2023-02-18T13:59:26.846Z,0.90
2023-02-18T14:01:54.584Z,1.10
2023-02-18T14:04:36.611Z,1.20
2023-02-18T14:07:26.544Z,1.40
2023-02-18T14:09:57.217Z,1.00
2023-02-18T14:12:37.763Z,1.25
2023-02-18T14:15:20.562Z,1.45
2023-02-18T14:18:07.997Z,0.90
2023-02-18T14:20:38.350Z,1.10
2023-02-18T14:23:37.859Z,0.90
2023-02-18T14:26:07.402Z,1.10
2023-02-18T14:28:34.793Z,1.13
2023-02-18T14:31:22.204Z,1.10
2023-02-18T14:33:59.711Z,0.98
2023-02-18T14:36:45.840Z,1.20
2023-02-18T14:39:32.982Z,1.30
2023-02-18T14:42:38.221Z,1.20
2023-02-18T14:45:14.328Z,1.20
2023-02-18T14:47:47.875Z,1.00
2023-02-18T14:50:20.634Z,1.33
2023-02-18T14:52:54.418Z,1.35
2023-02-18T14:55:32.373Z,1.67
2023-02-18T14:58:08.506Z,2.58
2023-02-18T15:00:41.401Z,2.00
2023-02-18T15:03:15.711Z,1.30
2023-02-18T15:05:44.427Z,1.63
2023-02-18T15:08:24.196Z,1.50
2023-02-18T15:10:51.703Z,1.33
2023-02-18T15:13:27.011Z,1.30
2023-02-18T15:15:59.189Z,1.50
2023-02-18T15:18:43.422Z,1.42
2023-02-18T15:21:40.926Z,1.52
2023-02-18T15:24:20.363Z,0.93
2023-02-18T15:26:51.902Z,1.60
2023-02-18T15:29:31.857Z,1.50
2023-02-18T15:32:00.835Z,1.52
2023-02-18T15:34:38.865Z,1.50
2023-02-18T15:37:08.534Z,1.42
2023-02-18T15:39:38.677Z,1.35
2023-02-18T15:42:17.248Z,1.85
2023-02-18T15:44:51.544Z,1.55
2023-02-18T15:47:20.206Z,1.40
2023-02-18T15:49:54.450Z,1.73
2023-02-18T15:52:31.261Z,1.85
2023-02-18T15:55:11.895Z,1.45
2023-02-18T15:57:42.433Z,1.48
2023-02-18T16:00:28.658Z,1.38
2023-02-18T16:03:09.467Z,2.40
2023-02-18T16:05:39.000Z,1.90
2023-02-18T16:08:14.342Z,2.15
2023-02-18T16:10:47.446Z,2.30
2023-02-18T16:13:17.469Z,1.90
2023-02-18T16:15:48.311Z,1.88
2023-02-18T16:18:42.749Z,1.80
2023-02-18T16:21:19.119Z,1.70
2023-02-18T16:23:58.065Z,1.50
2023-02-18T16:26:41.122Z,1.70
2023-02-18T16:29:25.828Z,1.63
2023-02-18T16:31:53.498Z,1.73
2023-02-18T16:34:21.695Z,1.90
2023-02-18T16:37:07.710Z,1.83
2023-02-18T16:39:35.987Z,1.77
2023-02-18T16:42:05.745Z,1.52
2023-02-18T16:44:33.837Z,1.40
2023-02-18T16:47:01.508Z,1.45
2023-02-18T16:49:30.012Z,1.48
2023-02-18T16:52:07.927Z,1.50
2023-02-18T16:54:35.517Z,1.60
2023-02-18T16:57:02.970Z,1.20
2023-02-18T16:59:30.604Z,1.27
2023-02-18T17:01:58.122Z,1.77
2023-02-18T17:04:25.672Z,1.92
2023-02-18T17:06:53.222Z,2.40
2023-02-18T17:09:23.076Z,1.70
2023-02-18T17:11:52.836Z,2.33
2023-02-18T17:14:22.056Z,2.00
2023-02-18T17:16:52.561Z,2.03
2023-02-18T17:19:20.648Z,2.28
2023-02-18T17:21:48.970Z,2.05
2023-02-18T17:24:18.563Z,2.33
2023-02-18T17:26:46.075Z,2.88
2023-02-18T17:29:14.000Z,3.50
2023-02-18T17:31:47.546Z,2.90
2023-02-18T17:34:32.581Z,2.80
2023-02-18T17:37:00.168Z,4.63
2023-02-18T17:39:28.523Z,3.92
2023-02-18T17:41:56.017Z,2.90
2023-02-18T17:44:24.713Z,3.05
2023-02-18T17:46:52.552Z,2.63
2023-02-18T17:49:20.830Z,2.60
2023-02-18T17:51:48.669Z,2.10
2023-02-18T17:54:19.378Z,2.28
2023-02-18T17:56:47.157Z,1.60
2023-02-18T17:59:14.660Z,1.52
2023-02-18T18:01:43.315Z,2.10
2023-02-18T18:04:16.516Z,1.90
2023-02-18T18:06:45.746Z,2.90
2023-02-18T18:09:13.310Z,2.42
2023-02-18T18:11:41.000Z,2.10
2023-02-18T18:14:13.207Z,2.63
2023-02-18T18:16:40.721Z,2.72
2023-02-18T18:19:08.271Z,2.90
2023-02-18T18:21:36.817Z,5.00
2023-02-18T18:24:04.657Z,4.80
2023-02-18T18:26:32.289Z,3.67
2023-02-18T18:28:59.774Z,4.03
2023-02-18T18:31:27.571Z,3.72
2023-02-18T18:33:55.246Z,3.63
2023-02-18T18:36:24.392Z,3.42
2023-02-18T18:38:52.620Z,3.30
2023-02-18T18:41:22.348Z,3.53
2023-02-18T18:43:50.865Z,3.10
2023-02-18T18:46:18.682Z,3.88
2023-02-18T18:48:46.474Z,3.85
2023-02-18T18:51:19.726Z,3.80
2023-02-18T18:53:47.498Z,4.03
2023-02-18T18:56:14.908Z,3.97
2023-02-18T18:58:42.485Z,4.18
2023-02-18T19:01:27.351Z,5.20
2023-02-18T19:03:55.310Z,5.53
2023-02-18T19:06:22.836Z,4.20
2023-02-18T19:08:50.332Z,3.70
2023-02-18T19:11:17.727Z,4.30
2023-02-18T19:13:45.947Z,3.63
2023-02-18T19:16:25.290Z,4.22
2023-02-18T19:18:54.294Z,4.07
2023-02-18T19:21:21.714Z,4.10
2023-02-18T19:23:49.246Z,3.42
2023-02-18T19:26:17.169Z,2.97
2023-02-18T19:28:45.433Z,3.42
2023-02-18T19:31:13.449Z,3.67
2023-02-18T19:33:41.553Z,3.67
2023-02-18T19:36:10.893Z,3.67
2023-02-18T19:38:39.014Z,4.20
2023-02-18T19:41:12.575Z,6.00
2023-02-18T19:43:41.396Z,4.85
2023-02-18T19:46:13.545Z,5.53
2023-02-18T19:48:42.260Z,4.00
2023-02-18T19:51:10.264Z,3.67
2023-02-18T19:53:38.180Z,4.20
2023-02-18T19:56:09.312Z,3.42
2023-02-18T19:58:40.100Z,3.00
2023-02-18T20:01:15.383Z,2.95
2023-02-18T20:03:43.219Z,3.05
2023-02-18T20:06:21.015Z,2.20
2023-02-18T20:08:48.724Z,2.80
2023-02-18T20:11:16.293Z,2.90
2023-02-18T20:13:44.259Z,3.15
2023-02-18T20:16:12.253Z,3.67
2023-02-18T20:18:41.024Z,3.60
2023-02-18T20:21:12.298Z,2.88
2023-02-18T20:23:40.427Z,3.17
2023-02-18T20:26:13.000Z,2.75
2023-02-18T20:28:41.081Z,3.08
2023-02-18T20:31:11.596Z,2.88
2023-02-18T20:33:39.681Z,2.50
2023-02-18T20:36:08.592Z,2.30
2023-02-18T20:38:36.898Z,2.75
2023-02-18T20:41:05.630Z,2.30
2023-02-18T20:43:33.450Z,2.50
2023-02-18T20:46:05.361Z,1.90
2023-02-18T20:48:36.434Z,2.15
2023-02-18T20:51:05.768Z,2.53
2023-02-18T20:53:34.734Z,1.98
2023-02-18T20:56:02.674Z,1.70
2023-02-18T20:58:30.694Z,1.92
2023-02-18T21:01:00.388Z,2.00
2023-02-18T21:03:28.601Z,3.05
2023-02-18T21:06:09.934Z,2.28
2023-02-18T21:08:40.475Z,2.30
2023-02-18T21:11:11.431Z,2.17
2023-02-18T21:13:39.445Z,2.78
2023-02-18T21:16:08.251Z,1.92
2023-02-18T21:18:37.289Z,1.98
2023-02-18T21:21:07.031Z,1.50
2023-02-18T21:23:38.599Z,1.60
2023-02-18T21:26:15.631Z,1.60
2023-02-18T21:28:46.307Z,1.40
2023-02-18T21:31:16.804Z,1.48
2023-02-18T21:33:44.465Z,1.50
2023-02-18T21:36:14.075Z,1.60
2023-02-18T21:38:44.641Z,1.50
2023-02-18T21:41:12.927Z,2.30
2023-02-18T21:43:40.417Z,2.65
2023-02-18T21:46:14.623Z,2.10
2023-02-18T21:49:00.577Z,1.92
2023-02-18T21:51:52.141Z,2.00
2023-02-18T21:54:22.556Z,2.30
2023-02-18T21:56:51.241Z,2.45
2023-02-18T21:59:19.965Z,2.50
2023-02-18T22:01:48.091Z,2.40
2023-02-18T22:04:15.959Z,2.30
2023-02-18T22:06:43.836Z,1.95
2023-02-18T22:09:12.021Z,2.42
2023-02-18T22:11:42.103Z,2.25
2023-02-18T22:14:11.401Z,2.03
2023-02-18T22:16:39.361Z,2.00
2023-02-18T22:19:07.651Z,2.47
2023-02-18T22:21:35.244Z,2.78
2023-02-18T22:24:04.814Z,1.73
2023-02-18T22:26:32.492Z,3.75
2023-02-18T22:29:00.397Z,2.63
2023-02-18T22:31:29.592Z,2.97
2023-02-18T22:33:58.225Z,2.35
2023-02-18T22:36:27.160Z,3.20
2023-02-18T22:38:54.909Z,2.80
2023-02-18T22:41:24.913Z,3.00
2023-02-18T22:44:01.187Z,2.85
2023-02-18T22:46:30.086Z,2.47
2023-02-18T22:48:58.484Z,2.53
2023-02-18T22:51:28.900Z,2.63
2023-02-18T22:53:58.354Z,2.88
2023-02-18T22:56:28.269Z,2.83
2023-02-18T22:58:56.981Z,2.95
2023-02-18T23:01:42.373Z,2.83
2023-02-18T23:04:12.324Z,2.57
2023-02-18T23:06:42.064Z,2.70
2023-02-18T23:09:13.557Z,3.00
2023-02-18T23:11:41.182Z,2.85
2023-02-18T23:14:18.187Z,2.00
2023-02-18T23:17:12.899Z,1.88
2023-02-18T23:19:44.656Z,2.35
2023-02-18T23:22:14.673Z,2.25
2023-02-18T23:24:44.856Z,1.98
2023-02-18T23:27:14.506Z,2.10
2023-02-18T23:29:42.378Z,1.98
2023-02-18T23:32:10.597Z,1.63
2023-02-18T23:34:38.733Z,1.95
2023-02-18T23:37:06.235Z,1.80
2023-02-18T23:39:34.344Z,2.05
2023-02-18T23:42:01.900Z,3.15
2023-02-18T23:44:29.560Z,2.03
2023-02-18T23:46:57.136Z,1.50
2023-02-18T23:49:26.586Z,1.92
2023-02-18T23:51:56.098Z,2.17
2023-02-18T23:54:24.390Z,2.20
2023-02-18T23:56:52.027Z,1.70
2023-02-18T23:59:19.495Z,2.92
